Millenium Air

Millenium Air Since 1998



 METAR AND TAF INFORMATION
METAR FOR LEGE
ADDS - METARS form results

(0642 UTC 18 April 2021)
Data provider http://aviationweather.gov/metar/data/
 
METAR text: LEGE 180630Z 29003KT 250V320 CAVOK 05/02 Q1018
Conditions at: LEGE (GERONA/COSTA BRA, ES) observed 0630 UTC 18 April 2021
Temperature: 5.0°C (41°F)
Dewpoint: 2.0°C (36°F) [RH = 81%]
Pressure (altimeter): 30.06 inches Hg (1018.0 mb)
Winds: from the WNW (290 degrees) at 3 MPH (3 knots; 1.5 m/s)
Visibility: 6 or more miles (10+ km)
Ceiling: ceiling and visibility are OK
Clouds: unknown
Weather: no significant weather observed at this time

METAR text: LEGE 180600Z 00000KT CAVOK 03/01 Q1018
Conditions at: LEGE (GERONA/COSTA BRA, ES) observed 0600 UTC 18 April 2021
Temperature: 3.0°C (37°F)
Dewpoint: 1.0°C (34°F) [RH = 87%]
Pressure (altimeter): 30.06 inches Hg (1018.0 mb)
Winds: calm
Visibility: 6 or more miles (10+ km)
Ceiling: ceiling and visibility are OK
Clouds: unknown
Weather: no significant weather observed at this time

Forecast for: LEGE (GERONA/COSTA BRA, ES)
Text: TAF LEGE 180500Z 1806/1906 VRB04KT 9999 FEW020 TX18/1813Z TN04/1806Z
Forecast period: 0600 to 1200 UTC 18 April 2021
Forecast type: FROM: standard forecast or significant change
Winds: variable direction winds at 5 MPH (4 knots; 2.1 m/s)
Visibility: 6 or more miles (10+ km)
Ceiling: at least 12,000 feet AGL
Clouds: few clouds at 2000 feet AGL
Weather: no significant weather forecast for this period
Text: BECMG 1812/1814 18009KT
Forecast period: 1200 to 1800 UTC 18 April 2021
Forecast type: BECOMING: Conditions expected to become as follows by 1400 UTC 18 April 2021
Winds: from the S (180 degrees) at 10 MPH (9 knots; 4.6 m/s)
Visibility: 6 or more miles (10+ km)
Ceiling: at least 12,000 feet AGL
Clouds: few clouds at 2000 feet AGL
Weather: no significant weather forecast for this period
Text: BECMG 1818/1820 VRB04KT
Forecast period: 1800 UTC 18 April 2021 to 0600 UTC 19 April 2021
Forecast type: BECOMING: Conditions expected to become as follows by 2000 UTC 18 April 2021
Winds: variable direction winds at 5 MPH (4 knots; 2.1 m/s)
Visibility: 6 or more miles (10+ km)
Ceiling: at least 12,000 feet AGL
Clouds: few clouds at 2000 feet AGL
Weather: no significant weather forecast for this period

 AIRPORT MAP

 RUNWAY INFORMATION
Runway 02 Runway length 7874 ft Runway width 148 ft
Runway elevation 403 ft Runway displaced threshold 0 ft Runway heading 16
Runway 20 Runway length 7874 ft Runway width 148 ft
Runway elevation 468 ft Runway displaced threshold 0 ft Runway heading 196

 AIRPORT FREQUENCIES
Type APP Name APP Frequency 120.9 MHZ
Type GND Name GND Frequency 121.7 MHZ
Type TWR Name TWR Frequency 118.5 MHZ

 AIRPORT NEAR NAVIGATION AIDS
Type VOR-DME Name Gerona Frequency 114100 KHZ
Type NDB Name Gerona Frequency 412 KHZ